Kendall, MI (49062)

10:30 AM EDT on July 30, 2016 (GMT -0400)
Gobles | | Change Station

Elev 860 ft 42.40 °N, 85.82 °W | Updated 1 minute ago

Light Rain
Light Rain Mist
63.9 °F
Feels Like 63.9 °F
N
0.0
Wind Variable Wind from SSE

Today
High -- | Low -- °F
--% Chance of Precip.
Yesterday
High -- | Low -- °F
Precip. -- in
Pressure 30.00 in
Visibility 3.0 miles
Clouds Scattered Clouds 500 ft
Mostly Cloudy 2900 ft
Overcast 3900 ft
Dew Point 64 °F
Humidity 99%
Rainfall 0.21 in
Snow Depth Not available.
6:34 AM 9:04 PM
Waning Crescent, 13% visible
SPECI KAZO 301415Z VRB03KT 3SM -RA BR SCT005 BKN029 OVC039 18/17 A3000 RMK AO2 P0008 T01830167
Pressure 30.00 in
Visibility 3.0 miles
Clouds Scattered Clouds 500 ft
Mostly Cloudy 2900 ft
Overcast 3900 ft
Dew Point 64 °F
Humidity 99%
Rainfall 0.21 in
Snow Depth Not available.
6:34 AM 9:04 PM
Waning Crescent, 13% visible
SPECI KAZO 301415Z VRB03KT 3SM -RA BR SCT005 BKN029 OVC039 18/17 A3000 RMK AO2 P0008 T01830167

10-Day Weather Forecast

Almanac

Astronomy

Jul. 30, 2016 Rise Set
Actual Time
Civil Twilight
Nautical Twilight
Astronomical Twilight
Moon
Length of Visible Light
Length of Day
Tomorrow will be .
, % of the Moon is Illuminated

Today's Extremes

State Highs State Lows

Community

WunderPhotos

Upload Photos

1,928,565 photos uploaded!

WunderBlog® & News

Nearby

Air Quality

  Air Quality AQ Index Pollutant
Not available.

Snow Depth

Station Depth Elevation

Earthquake Activity

City Distance Mag. Time & Date
Minimum magnitude displayed is 2.5.

Coastal Water Temperatures

Place Temperature

Stations

Nearby Weather Stations

Station Location Temp. Windchill Dew Point Humidity Wind Precip. Elev Updated Type
                   

Watches & Warnings

There are currently no watches in effect.